Aéroport int. Stanfield de Halifax, Nouvelle Écosse

Conditions des dernières 24 heures

Date / Heure
(HAA)
Conditions Temp
(°C)
Humidité
(%)
Point de rosée
(°C)
Vent
(km/h)
Pression
(kPa)
Visibilité
(km)
22 mai 2015
12:00 Pluie faible 7 89 6 SSE 14 101,4 16
11:00 Faible averse de pluie 8 90 6 S 4 101,4 19
10:00 Faible averse de pluie 7 90 6 S 14 101,5 16
9:00 Nuageux 9 66 3 S 17 101,4 24
8:00 Nuageux 8 60 1 SSO 14 101,4 24
7:00 Généralement nuageux 7 70 2 SSO 16 101,5 24
6:00 Généralement nuageux 6 75 2 S 15 101,4 24
5:00 Généralement nuageux 5   77 2 SSE 15 101,4 24
4:00 Généralement nuageux 6 71 1 SSE 14 101,4 24
3:00 Partiellement nuageux 8 56 0 S 9 101,4 24
2:00 Généralement dégagé 8 59 1 S 11 101,4 24
1:00 Dégagé 10 49 0 OSO 8 101,4 24
0:00 Dégagé 11 51 1 SO 12 101,4 24
21 mai 2015
23:00 Dégagé 13 44 1 OSO 15 101,4 24
22:00 Dégagé 12 55 3 SO 16 101,3 24
21:00 Généralement dégagé 15 40 2 OSO 17 rafale 30 101,2 24
20:00 Ensoleillé 17 32 1 O 15 101,1 24
19:00 Ensoleillé 18 28 0 ONO 26 101,0 24
18:00 Généralement ensoleillé 19 28 0 O 21 rafale 38 101,0 24
17:00 Partiellement nuageux 19 24 -2 O 33 rafale 45 100,9 24
16:00 Généralement nuageux 20   26 0 O 27 rafale 48 100,8 23
15:00 Généralement nuageux 19 31 2 OSO 27 rafale 47 100,8 24
14:00 Généralement nuageux 19 31 1 ONO 34 rafale 48 100,8 24
13:00 Partiellement nuageux 18 31 1 ONO 36 rafale 48 100,8 24
12:00 Généralement ensoleillé 17 36 2 O 21 rafale 42 100,9 24
N.D. non disponible
↑ température la plus haute
↓ température la plus basse

Si vous désirez plus de données historiques sur les conditions météo, s.v.p. visitez Données climatologiques en ligne.

Ce que nous faisons

Date de modification :